Estación Temperatura (°C) Hum
rel
(%)
Precip
(mm)
Viento (km/h) Actual.
Act Mín Máx Act Dir Máx
Vega Baja del Segura
Almoradí Centro 20,7 19,7 23,4 79 0,0 3 ENE 27 2021-06-17 07:40:00
Almoradí Los Gomares 20,3 19,3 23,4 80 0,8 1 SSE 37 2021-06-17 07:40:00
Benejúzar 20,8 19,8 23,3 76 0,0 0 ENE 39 2021-06-17 07:40:00
Bigastro La Pedrera 20,0 18,9 22,6 79 0,0 5 SSO 26 2021-06-17 07:40:00
Bigastro Lo Chusco 20,1 19,0 23,3 81 0,0 4 SO 53 2021-06-17 07:40:00
Cox El Jasminao 20,7 19,3 24,1 77 1,5 3 O 40 2021-06-17 07:30:00
Cox Centro 21,2 19,7 24,8 62 1,3 8 OSO 53 2021-06-17 07:30:00
Guardamar del Segura Centro 19,4 19,4 23,6 88 0,5 5 O 31 2021-06-17 07:40:00
Jacarilla Centro 20,0 19,8 23,6 85 0,0 2 NNO 29 2021-06-17 07:30:00
Orihuela Centro 21,2 20,2 23,5 76 0,0 15 O 61 2021-06-17 07:40:00
Orihuela La Campaneta 19,6 19,4 23,8 87 0,5 3 ESE 48 2021-06-17 07:30:00
Orihuela R. de Bonanza 19,8 18,9 23,9 86 4,6 16 OSO 52 2021-06-17 07:49:00
Orihuela Playa Flamenca 20,6 20,6 23,8 83 0,3 6 ESE 31 2021-06-17 07:30:00
Orihuela Lo Capitán 19,0 18,8 22,4 90 0,0 0 ESE 28 2021-06-17 07:40:00
Orihuela Arneva 19,4 19,2 23,8 88 2,0 10 OSO 39 2021-06-17 07:40:00
Orihuela CC La Zenia 20,6 20,6 23,4 84 0,0 18 NO 31 2021-06-17 07:30:00
Orihuela Dehesa de Pinohermoso 18,8 18,8 22,5 92 1,5 3 SSO 39 2021-06-17 07:30:00
Rafal 20,8 20,2 23,7 77 0,0 3 NNO 23 2021-06-17 07:40:00
Redován 19,7 19,4 24,4 85 1,3 5 SO 13 2021-06-17 07:40:00
Rojales Centro 20,7 20,2 23,4 79 0,0 0 E 17 2021-06-17 07:40:00
Rojales Ciudad Quesada 20,4 19,9 23,1 79 0,3 16 NNO 29 2021-06-17 07:40:00
San Fulgencio Urb. La Marina 19,8 19,7 23,0 82 0,3 8 N 37 2021-06-17 07:30:00
San Fulgencio Centro 20,0 19,8 23,1 82 0,5 6 NNE 45 2021-06-17 07:30:00
San Miguel de Salinas 19,7 19,6 22,4 71 0,0 5 ONO 35 2021-06-17 07:47:00
Pilar de la Horadada Pinar de Campoverde 19,9 19,3 21,9 85 0,0 6 N 27 2021-06-17 07:55:00
Pilar de la Horadada Lo Monte 20,7 20,6 23,1 87 0,0 15 N 33 2021-06-17 07:40:00
Zonas Adyacentes
Santomera Centro 19,6 18,6 24,3 86 10,6 2 O 63 2021-06-17 07:50:00
Santomera La Almazara 19,0 17,9 22,9 89 17,2 0 NE 53 2021-06-17 07:50:00
Murcia Santo Ángel 19,4 18,5 23,5 87 6,9 3 SO 44 2021-06-17 07:50:00
Murcia Cañadas de San Pedro 19,4 18,9 22,2 87 0,0 2 O 19 2021-06-17 07:48:00
Molina de Segura La Espada 18,8 17,0 22,2 67 15,2 5 OSO 61 2021-06-17 07:49:00
San Javier 21,2 20,8 23,5 76 0,0 5 ONO 33 2021-06-17 07:50:00